Time;durP1;ratioP1;P1;durP2;ratioP2;P2;SDS_P1;SDS_P2;PMS_P1;PMS_P2;Temp;Humidity;BMP_temperature;BMP_pressure;BME280_temperature;BME280_humidity;BME280_pressure;Samples;Min_cycle;Max_cycle;Signal;HPM_P1;HPM_P2
2023/01/28 00:03:17;;;;;;;12.27;6.68;;;7.40;84.40;;;;;;10752286;33;20016;-76
2023/01/28 00:09:21;;;;;;;12.95;7.57;;;7.50;84.10;;;;;;10814042;32;20083;-76
2023/01/28 00:15:24;;;;;;;12.10;7.32;;;7.40;84.00;;;;;;10750502;33;20048;-76
2023/01/28 00:21:26;;;;;;;10.60;6.93;;;7.30;83.60;;;;;;10756707;27;20090;-76
2023/01/28 00:27:29;;;;;;;9.40;5.93;;;7.00;83.70;;;;;;10751751;33;20039;-76
2023/01/28 00:33:32;;;;;;;9.50;5.95;;;6.70;84.20;;;;;;10751480;33;20016;-76
2023/01/28 00:39:34;;;;;;;9.27;5.72;;;6.80;84.60;;;;;;10751368;33;20382;-73
2023/01/28 00:45:37;;;;;;;6.68;4.37;;;7.00;84.40;;;;;;10751046;32;20033;-73
2023/01/28 00:51:39;;;;;;;11.68;6.43;;;6.90;84.00;;;;;;10750898;33;20021;-73
2023/01/28 00:57:42;;;;;;;10.68;6.35;;;6.80;84.20;;;;;;10750883;33;20020;-73
2023/01/28 01:03:44;;;;;;;8.98;5.47;;;6.90;84.00;;;;;;10746980;33;20468;-73
2023/01/28 01:09:46;;;;;;;9.75;5.55;;;6.80;83.80;;;;;;10750753;33;20013;-73
2023/01/28 01:15:48;;;;;;;11.07;6.40;;;6.80;83.70;;;;;;10737492;33;20020;-73
2023/01/28 01:21:50;;;;;;;10.18;6.45;;;6.90;83.80;;;;;;10756352;33;20032;-73
2023/01/28 01:27:52;;;;;;;8.98;6.78;;;7.00;84.10;;;;;;10756778;33;20021;-73
2023/01/28 01:33:54;;;;;;;12.37;7.15;;;7.00;84.50;;;;;;10756487;33;20048;-73
2023/01/28 01:40:08;;;;;;;10.55;6.10;;;6.90;84.60;;;;;;10756374;33;20020;-73
2023/01/28 01:46:10;;;;;;;9.07;6.07;;;6.90;84.60;;;;;;10756264;33;20051;-73
2023/01/28 01:52:20;;;;;;;9.32;5.97;;;6.80;84.50;;;;;;10755075;33;20059;-73
2023/01/28 01:58:26;;;;;;;11.23;7.00;;;6.70;84.50;;;;;;10755968;33;20020;-73
2023/01/28 02:04:36;;;;;;;11.40;5.12;;;6.70;84.40;;;;;;10755809;33;20035;-73
2023/01/28 02:10:38;;;;;;;8.85;5.68;;;6.60;84.30;;;;;;10755382;33;20016;-73
2023/01/28 02:16:40;;;;;;;6.43;3.92;;;6.50;84.10;;;;;;10755279;33;20055;-73
2023/01/28 02:23:23;;;;;;;8.77;4.62;;;6.40;83.90;;;;;;10806931;32;20440;-73
2023/01/28 02:29:46;;;;;;;10.88;8.23;;;6.30;83.70;;;;;;10945635;32;20356;-73
2023/01/28 02:35:52;;;;;;;8.05;5.72;;;6.20;83.50;;;;;;10948060;32;20053;-73
2023/01/28 02:41:56;;;;;;;9.18;7.00;;;6.20;83.50;;;;;;10944923;32;20077;-73
2023/01/28 02:47:58;;;;;;;7.93;4.60;;;6.20;83.40;;;;;;10945805;32;20042;-73
2023/01/28 02:54:17;;;;;;;10.40;6.57;;;6.20;83.40;;;;;;10943319;32;20381;-73
2023/01/28 03:00:36;;;;;;;11.00;7.57;;;6.00;83.30;;;;;;10945136;32;20031;-74
2023/01/28 03:06:47;;;;;;;9.90;8.00;;;5.90;83.20;;;;;;10940883;32;20046;-73
2023/01/28 03:38:22;;;;;;;10.60;6.50;;;5.70;83.00;;;;;;10944052;32;20030;-73
2023/01/28 03:50:46;;;;;;;13.85;8.77;;;5.80;83.00;;;;;;10943605;32;20380;-76
2023/01/28 03:56:49;;;;;;;11.57;8.48;;;5.90;82.90;;;;;;10943151;32;20057;-76
2023/01/28 04:02:51;;;;;;;14.60;6.87;;;6.00;83.00;;;;;;10943000;32;20092;-76
2023/01/28 04:08:58;;;;;;;11.75;8.00;;;6.10;83.20;;;;;;10940849;32;20053;-76
2023/01/28 04:15:00;;;;;;;15.18;10.43;;;6.10;83.30;;;;;;10929227;32;20023;-76
2023/01/28 04:21:02;;;;;;;12.07;7.95;;;6.10;82.90;;;;;;10937983;32;20066;-76
2023/01/28 04:27:06;;;;;;;12.07;7.95;;;6.00;82.60;;;;;;10942328;32;20015;-76
2023/01/28 04:33:08;;;;;;;15.88;10.55;;;5.90;82.60;;;;;;10942165;32;20041;-77
2023/01/28 04:39:11;;;;;;;13.40;9.35;;;6.00;83.10;;;;;;10941929;32;20069;-77
2023/01/28 04:45:14;;;;;;;14.00;7.97;;;5.90;83.40;;;;;;10941900;32;20452;-77
2023/01/28 04:51:17;;;;;;;10.52;6.47;;;5.90;84.10;;;;;;10942494;32;20385;-76
2023/01/28 04:57:20;;;;;;;13.93;9.52;;;5.90;84.70;;;;;;10940855;32;20369;-76
2023/01/28 05:03:34;;;;;;;10.10;7.65;;;5.90;84.50;;;;;;10936194;32;20066;-76
2023/01/28 05:09:37;;;;;;;11.63;8.65;;;5.80;84.30;;;;;;10953843;32;20042;-76
2023/01/28 05:15:39;;;;;;;11.55;7.75;;;5.80;84.50;;;;;;10953765;32;20019;-77
2023/01/28 05:21:41;;;;;;;14.75;7.45;;;5.70;84.10;;;;;;10934346;32;20032;-76
2023/01/28 05:27:48;;;;;;;12.27;8.75;;;5.60;83.90;;;;;;10762667;33;20021;-76
2023/01/28 05:33:51;;;;;;;17.40;12.07;;;5.60;84.10;;;;;;10762539;33;20025;-76
2023/01/28 05:39:54;;;;;;;15.18;10.95;;;5.60;84.10;;;;;;10812495;32;20047;-76
2023/01/28 05:45:55;;;;;;;21.02;14.63;;;5.50;84.00;;;;;;10762256;33;20437;-76
2023/01/28 05:51:58;;;;;;;16.80;11.70;;;5.40;83.90;;;;;;10760762;33;20461;-76
2023/01/28 05:58:22;;;;;;;16.40;12.40;;;5.40;84.00;;;;;;10737372;33;20033;-76
2023/01/28 06:04:50;;;;;;;15.70;11.27;;;5.40;84.10;;;;;;10759643;33;20070;-77
2023/01/28 06:10:53;;;;;;;13.25;9.38;;;5.30;84.10;;;;;;10755790;32;20398;-76
2023/01/28 06:17:18;;;;;;;13.43;9.80;;;5.20;83.90;;;;;;10755409;33;20021;-76
2023/01/28 06:23:22;;;;;;;13.98;10.40;;;5.20;83.70;;;;;;10739742;33;20029;-76
2023/01/28 06:29:24;;;;;;;14.75;8.95;;;5.20;83.40;;;;;;10754948;33;20480;-76
2023/01/28 06:35:27;;;;;;;10.80;7.75;;;5.20;83.30;;;;;;10754969;33;20066;-77
2023/01/28 06:41:29;;;;;;;15.43;11.48;;;5.00;83.30;;;;;;10742000;32;20025;-76
2023/01/28 06:47:31;;;;;;;24.05;13.60;;;4.90;83.20;;;;;;10753718;33;20395;-77
2023/01/28 06:53:33;;;;;;;12.37;8.45;;;5.00;83.30;;;;;;10741403;33;20370;-76
2023/01/28 06:59:34;;;;;;;19.27;13.10;;;5.00;83.20;;;;;;10741934;32;20071;-76
2023/01/28 07:05:37;;;;;;;13.98;9.48;;;4.90;83.10;;;;;;10750197;33;20021;-76
2023/01/28 07:11:39;;;;;;;14.07;9.85;;;4.80;83.00;;;;;;10802579;32;20025;-76
2023/01/28 07:17:41;;;;;;;12.20;8.73;;;4.80;83.00;;;;;;10750982;33;20028;-76
2023/01/28 07:23:45;;;;;;;18.27;14.57;;;4.80;82.90;;;;;;10888037;32;20022;-73
2023/01/28 07:29:47;;;;;;;12.25;9.68;;;4.70;82.80;;;;;;10930837;32;20023;-73
2023/01/28 07:35:49;;;;;;;16.45;10.63;;;4.70;82.60;;;;;;10940724;32;20011;-73
2023/01/28 07:41:51;;;;;;;16.05;10.20;;;4.70;82.70;;;;;;10940413;32;20061;-73
2023/01/28 07:48:05;;;;;;;17.87;13.48;;;4.70;82.70;;;;;;10942768;32;20018;-76
2023/01/28 07:54:08;;;;;;;19.50;12.70;;;4.70;82.80;;;;;;10941427;32;20027;-76
2023/01/28 08:00:12;;;;;;;18.42;12.07;;;4.80;82.80;;;;;;10942089;32;20397;-76
2023/01/28 08:06:13;;;;;;;19.67;12.60;;;4.90;82.80;;;;;;10916211;32;20080;-76
2023/01/28 08:12:16;;;;;;;38.97;25.73;;;5.00;82.80;;;;;;10941007;32;20096;-73
2023/01/28 08:18:18;;;;;;;26.00;16.27;;;5.00;83.00;;;;;;10941996;32;20045;-72
2023/01/28 08:24:19;;;;;;;25.27;17.12;;;5.10;83.10;;;;;;10945100;27;20026;-72
2023/01/28 08:30:42;;;;;;;27.92;18.25;;;5.20;83.20;;;;;;10936292;32;20049;-72
2023/01/28 08:36:44;;;;;;;27.37;16.42;;;5.30;83.30;;;;;;10941876;32;20401;-72
2023/01/28 08:42:51;;;;;;;18.42;12.70;;;5.40;83.50;;;;;;10941171;32;20053;-73
2023/01/28 08:48:52;;;;;;;17.67;12.25;;;5.40;83.60;;;;;;10941307;32;20019;-72
2023/01/28 08:54:55;;;;;;;14.30;9.23;;;5.40;83.80;;;;;;10941469;32;20100;-73
2023/01/28 09:00:57;;;;;;;9.40;7.12;;;5.40;84.00;;;;;;10941475;32;20037;-72
2023/01/28 09:07:01;;;;;;;14.50;9.13;;;5.40;84.20;;;;;;10941490;32;20042;-73
2023/01/28 09:13:08;;;;;;;15.85;10.90;;;5.40;84.30;;;;;;10937208;32;20015;-73
2023/01/28 09:19:11;;;;;;;11.07;7.62;;;5.50;84.30;;;;;;10940978;32;20027;-73
2023/01/28 09:25:12;;;;;;;14.80;10.40;;;5.50;84.20;;;;;;10835230;32;20020;-73
2023/01/28 09:31:15;;;;;;;11.15;7.57;;;5.60;84.70;;;;;;10786298;32;20113;-73
2023/01/28 09:37:19;;;;;;;10.82;7.25;;;5.60;84.50;;;;;;10837004;32;20055;-73
2023/01/28 09:50:27;;;;;;;10.70;6.35;;;5.60;84.60;;;;;;10792804;32;20330;-73
2023/01/28 09:57:12;;;;;;;14.27;9.70;;;5.60;84.30;;;;;;10868848;32;20028;-73
2023/01/28 10:04:21;;;;;;;15.00;7.00;;;5.70;84.60;;;;;;10828986;32;20377;-73
2023/01/28 10:10:30;;;;;;;13.35;7.47;;;5.70;84.10;;;;;;10829273;32;20054;-73
2023/01/28 10:17:14;;;;;;;9.25;5.57;;;5.80;84.40;;;;;;10829062;32;20067;-73
2023/01/28 10:23:32;;;;;;;12.55;7.87;;;5.90;84.40;;;;;;10720475;33;20091;-73
2023/01/28 10:29:35;;;;;;;17.67;12.05;;;6.10;84.10;;;;;;10720521;33;20051;-73
2023/01/28 10:35:40;;;;;;;11.98;7.45;;;6.10;84.30;;;;;;10736697;33;20063;-73
2023/01/28 10:41:42;;;;;;;8.45;4.93;;;6.10;84.00;;;;;;10756767;33;20054;-73
2023/01/28 10:48:02;;;;;;;12.02;7.85;;;6.20;83.90;;;;;;10752423;33;20028;-73
2023/01/28 10:54:34;;;;;;;10.77;6.07;;;6.50;83.90;;;;;;10807764;33;20038;-74
2023/01/28 11:00:37;;;;;;;13.00;9.23;;;6.60;83.80;;;;;;10787970;32;20040;-74
2023/01/28 11:06:40;;;;;;;10.40;6.78;;;6.90;84.40;;;;;;10753111;33;20020;-73
2023/01/28 11:12:53;;;;;;;14.40;9.60;;;7.10;83.70;;;;;;10753044;33;20403;-74
2023/01/28 11:19:04;;;;;;;12.48;6.90;;;7.20;83.00;;;;;;10802531;32;20024;-73
2023/01/28 11:25:20;;;;;;;9.68;6.07;;;7.50;82.70;;;;;;10752620;33;20476;-73
2023/01/28 11:31:24;;;;;;;10.30;4.15;;;7.90;83.00;;;;;;10798719;32;20028;-73
2023/01/28 11:37:28;;;;;;;12.13;6.20;;;8.30;82.80;;;;;;10752369;33;20056;-77
2023/01/28 11:43:31;;;;;;;12.45;8.32;;;8.60;81.80;;;;;;10752457;33;20039;-77
2023/01/28 11:50:10;;;;;;;13.50;7.95;;;8.80;81.10;;;;;;10802336;32;20059;-77
2023/01/28 11:56:36;;;;;;;14.67;9.53;;;8.70;78.40;;;;;;10752260;33;20008;-77
2023/01/28 12:02:50;;;;;;;14.40;9.52;;;8.70;80.10;;;;;;10798697;32;20016;-77
2023/01/28 12:09:11;;;;;;;14.05;7.95;;;8.70;79.80;;;;;;10773904;33;20402;-74
2023/01/28 12:16:00;;;;;;;15.05;9.13;;;8.60;78.70;;;;;;10788213;33;20046;-73
2023/01/28 12:22:25;;;;;;;12.77;9.38;;;8.60;78.90;;;;;;10859545;32;20039;-74
2023/01/28 12:28:57;;;;;;;13.02;7.37;;;8.70;78.70;;;;;;10796649;32;20040;-73
2023/01/28 12:35:19;;;;;;;12.07;8.45;;;8.60;78.00;;;;;;10792285;32;20036;-73
2023/01/28 12:41:28;;;;;;;12.68;9.40;;;8.60;77.90;;;;;;10788979;33;20036;-74
2023/01/28 12:47:36;;;;;;;13.40;8.15;;;8.70;78.20;;;;;;10776047;33;20414;-74
2023/01/28 12:53:49;;;;;;;14.77;7.70;;;8.70;78.10;;;;;;10788503;33;20445;-74
2023/01/28 13:00:16;;;;;;;13.18;7.43;;;8.60;78.60;;;;;;10776939;33;20048;-73
2023/01/28 13:06:46;;;;;;;11.65;6.35;;;8.50;78.10;;;;;;10898150;32;20023;-74
2023/01/28 13:12:49;;;;;;;12.55;6.60;;;8.50;76.50;;;;;;10863462;32;20023;-74
2023/01/28 13:18:51;;;;;;;11.15;7.22;;;8.60;77.50;;;;;;10869518;32;20398;-74
2023/01/28 13:24:53;;;;;;;11.02;6.65;;;8.70;76.80;;;;;;10869818;32;20024;-73
2023/01/28 13:31:08;;;;;;;8.65;5.32;;;8.70;75.60;;;;;;10866620;32;20042;-74
2023/01/28 13:37:34;;;;;;;12.30;6.53;;;8.70;74.30;;;;;;10868012;32;20314;-74
2023/01/28 13:43:40;;;;;;;14.30;7.00;;;8.90;74.80;;;;;;10865730;32;20051;-74
2023/01/28 13:49:47;;;;;;;9.77;5.50;;;9.00;73.30;;;;;;10902682;32;20050;-73
2023/01/28 13:55:54;;;;;;;11.38;6.22;;;9.00;72.80;;;;;;10909649;32;20390;-74
2023/01/28 14:02:22;;;;;;;10.32;6.60;;;9.10;72.60;;;;;;10908982;32;20037;-74
2023/01/28 14:08:46;;;;;;;9.68;5.97;;;9.00;72.70;;;;;;10908038;32;20093;-74
2023/01/28 14:15:12;;;;;;;9.68;6.00;;;9.10;72.80;;;;;;10909002;32;20090;-73
2023/01/28 14:21:20;;;;;;;9.02;3.85;;;9.20;73.30;;;;;;10913067;32;20019;-73
2023/01/28 14:27:37;;;;;;;10.18;5.45;;;9.40;74.10;;;;;;10816869;32;20020;-73
2023/01/28 14:33:40;;;;;;;10.63;5.53;;;9.40;74.20;;;;;;10755897;33;20016;-73
2023/01/28 14:39:51;;;;;;;11.38;6.35;;;9.70;73.90;;;;;;10754441;33;20021;-73
2023/01/28 14:46:23;;;;;;;10.35;6.47;;;9.80;72.90;;;;;;10754133;33;20390;-73
2023/01/28 14:52:36;;;;;;;11.63;6.62;;;9.60;73.60;;;;;;10750852;33;20032;-73
2023/01/28 14:58:44;;;;;;;9.70;5.85;;;9.80;74.10;;;;;;10753627;33;20025;-73
2023/01/28 15:04:51;;;;;;;10.20;4.95;;;10.50;72.80;;;;;;10753203;33;20017;-73
2023/01/28 15:10:53;;;;;;;8.98;6.12;;;10.90;71.20;;;;;;10753187;33;20024;-73
2023/01/28 15:16:55;;;;;;;7.87;4.22;;;11.20;72.20;;;;;;10753149;33;20047;-73
2023/01/28 15:22:59;;;;;;;9.85;6.32;;;11.80;72.10;;;;;;10752901;33;20399;-73
2023/01/28 15:29:01;;;;;;;7.20;4.22;;;11.90;71.40;;;;;;10802830;32;20048;-73
2023/01/28 15:35:12;;;;;;;6.65;3.97;;;11.70;71.70;;;;;;10750994;33;20024;-73
2023/01/28 15:41:17;;;;;;;8.48;4.93;;;11.60;72.60;;;;;;10802521;32;20436;-73
2023/01/28 15:47:24;;;;;;;10.68;5.10;;;11.10;74.00;;;;;;10752442;33;20017;-73
2023/01/28 15:53:40;;;;;;;9.55;5.15;;;10.80;75.00;;;;;;10752396;33;20052;-73
2023/01/28 15:59:45;;;;;;;9.35;4.43;;;10.30;75.80;;;;;;10752577;33;20398;-73
2023/01/28 16:05:57;;;;;;;12.27;3.05;;;9.70;76.80;;;;;;10750803;33;20090;-73
2023/01/28 16:12:05;;;;;;;6.43;3.08;;;9.20;77.70;;;;;;10751799;33;20043;-73
2023/01/28 16:18:27;;;;;;;8.20;3.90;;;8.90;78.30;;;;;;10801459;32;20442;-73
2023/01/28 16:24:34;;;;;;;7.37;3.37;;;8.70;78.70;;;;;;10266910;32;17098744;-73
2023/01/28 16:30:37;;;;;;;6.43;3.50;;;8.40;79.10;;;;;;10699729;33;20052;-73
2023/01/28 16:36:39;;;;;;;4.47;2.62;;;8.20;79.30;;;;;;10711041;33;20037;-73
2023/01/28 16:42:43;;;;;;;4.65;2.60;;;8.10;79.60;;;;;;10711465;33;20029;-73
2023/01/28 16:48:45;;;;;;;6.75;3.45;;;7.90;79.80;;;;;;10722518;33;20024;-73
2023/01/28 16:54:47;;;;;;;4.40;2.80;;;7.80;80.10;;;;;;10800901;32;20052;-73
2023/01/28 17:00:49;;;;;;;7.00;2.90;;;7.70;80.30;;;;;;10750672;33;20028;-73
2023/01/28 17:06:51;;;;;;;9.15;3.67;;;7.60;80.40;;;;;;10749762;33;20071;-73
2023/01/28 17:12:53;;;;;;;4.45;3.10;;;7.60;80.50;;;;;;10725624;33;20033;-73
2023/01/28 17:18:55;;;;;;;6.75;3.95;;;7.50;80.50;;;;;;10749931;33;20058;-73
2023/01/28 17:24:57;;;;;;;10.07;3.75;;;7.50;80.60;;;;;;10750529;33;20079;-73
2023/01/28 17:31:04;;;;;;;4.03;3.12;;;7.40;80.70;;;;;;10749558;33;20351;-74
2023/01/28 17:37:05;;;;;;;9.88;5.15;;;7.30;80.80;;;;;;10749945;32;20343;-74
2023/01/28 17:43:08;;;;;;;15.50;6.82;;;7.30;81.20;;;;;;10750268;33;20032;-73
2023/01/28 17:49:11;;;;;;;14.93;7.75;;;7.30;81.30;;;;;;10749973;33;20051;-73
2023/01/28 17:55:13;;;;;;;15.00;9.52;;;7.20;81.40;;;;;;10749904;33;20024;-73
2023/01/28 18:01:15;;;;;;;23.15;11.35;;;7.20;81.70;;;;;;10752691;33;20055;-73
2023/01/28 18:07:17;;;;;;;15.55;10.55;;;7.10;81.70;;;;;;10743880;32;20464;-73
2023/01/28 18:13:19;;;;;;;14.02;8.90;;;7.00;81.70;;;;;;10743024;33;20025;-73
2023/01/28 18:19:21;;;;;;;12.75;8.55;;;6.90;81.70;;;;;;10755748;33;20426;-73
2023/01/28 18:25:23;;;;;;;14.32;8.95;;;6.80;81.90;;;;;;10727158;32;20056;-74
2023/01/28 18:31:25;;;;;;;10.52;7.97;;;6.80;81.90;;;;;;10755561;33;20330;-77
2023/01/28 18:37:28;;;;;;;7.43;5.47;;;6.70;81.90;;;;;;10752724;33;20064;-73
2023/01/28 18:43:31;;;;;;;11.65;6.47;;;6.60;81.90;;;;;;10741857;33;20059;-74
2023/01/28 18:49:33;;;;;;;11.68;7.45;;;6.50;81.90;;;;;;10754877;33;20024;-76
2023/01/28 18:55:35;;;;;;;12.10;7.62;;;6.40;82.00;;;;;;10754844;33;20335;-76
2023/01/28 19:01:39;;;;;;;12.13;7.95;;;6.40;82.00;;;;;;10741463;33;20068;-76
2023/01/28 19:07:41;;;;;;;11.90;6.78;;;6.40;82.10;;;;;;10754446;33;20028;-76
2023/01/28 19:13:43;;;;;;;9.35;6.37;;;6.30;82.20;;;;;;10753632;33;20032;-76
2023/01/28 19:19:45;;;;;;;13.68;7.00;;;6.20;82.40;;;;;;10754123;33;20042;-76
2023/01/28 19:25:47;;;;;;;14.13;8.25;;;6.30;82.50;;;;;;10753944;33;20055;-77
2023/01/28 19:31:49;;;;;;;10.93;6.40;;;6.20;82.50;;;;;;10753852;33;20013;-76
2023/01/28 19:37:51;;;;;;;8.13;4.82;;;6.20;82.40;;;;;;10751270;33;20059;-76
2023/01/28 19:43:53;;;;;;;6.85;4.43;;;6.20;82.50;;;;;;10753416;33;20040;-77
2023/01/28 19:49:55;;;;;;;14.90;8.93;;;6.20;82.60;;;;;;10753132;33;20021;-77
2023/01/28 19:55:57;;;;;;;13.13;7.80;;;6.20;82.80;;;;;;10753011;33;20052;-77
2023/01/28 20:01:59;;;;;;;8.52;4.72;;;6.20;82.80;;;;;;10752909;33;20029;-77
2023/01/28 20:08:02;;;;;;;16.52;10.18;;;6.20;82.80;;;;;;10740505;32;20063;-77
2023/01/28 20:14:04;;;;;;;7.70;4.95;;;6.20;82.90;;;;;;10752734;33;20048;-76
2023/01/28 20:20:07;;;;;;;9.07;5.40;;;6.10;82.90;;;;;;10752417;33;20304;-76
2023/01/28 20:26:09;;;;;;;11.93;6.40;;;6.10;83.10;;;;;;10739422;32;20047;-76
2023/01/28 20:32:11;;;;;;;13.82;9.18;;;6.10;83.20;;;;;;10750385;33;20025;-77
2023/01/28 20:38:13;;;;;;;9.05;5.85;;;6.00;83.20;;;;;;10751839;33;20021;-76
2023/01/28 20:44:15;;;;;;;15.25;10.38;;;6.00;83.30;;;;;;10751862;33;20035;-76
2023/01/28 20:50:17;;;;;;;12.60;7.25;;;6.00;83.50;;;;;;10738349;33;20094;-76
2023/01/28 20:56:22;;;;;;;9.32;5.37;;;5.90;83.50;;;;;;10751499;33;20315;-77
2023/01/28 21:02:24;;;;;;;12.52;7.57;;;5.90;83.50;;;;;;10751290;33;20017;-77
2023/01/28 21:08:26;;;;;;;20.37;11.12;;;5.80;83.50;;;;;;10750938;33;20020;-76
2023/01/28 21:14:28;;;;;;;13.23;9.43;;;5.80;83.40;;;;;;10749808;33;20052;-76
2023/01/28 21:20:31;;;;;;;13.48;10.00;;;5.70;83.80;;;;;;10725646;33;20078;-76
2023/01/28 21:26:33;;;;;;;13.43;8.43;;;5.70;83.80;;;;;;10750752;33;20024;-77
2023/01/28 21:32:35;;;;;;;14.90;9.23;;;5.70;83.80;;;;;;10749420;33;20021;-77
2023/01/28 21:38:38;;;;;;;10.70;8.55;;;5.70;83.70;;;;;;10742215;33;20063;-77
2023/01/28 21:44:40;;;;;;;14.98;9.00;;;5.70;83.70;;;;;;10756738;33;20331;-77
2023/01/28 21:57:02;;;;;;;12.98;9.65;;;5.50;83.90;;;;;;10756439;33;20012;-77
2023/01/28 22:03:04;;;;;;;12.15;7.53;;;5.50;83.90;;;;;;10756121;33;20051;-77
2023/01/28 22:09:10;;;;;;;13.93;7.85;;;5.40;84.00;;;;;;10756041;33;20178;-77
2023/01/28 22:15:12;;;;;;;15.15;9.57;;;5.40;84.10;;;;;;10755735;33;20020;-77
2023/01/28 22:21:15;;;;;;;14.70;10.00;;;5.50;84.10;;;;;;10755470;33;20047;-77
2023/01/28 22:27:17;;;;;;;11.05;6.32;;;5.40;83.90;;;;;;10742245;33;20037;-77
2023/01/28 22:33:20;;;;;;;17.02;12.32;;;5.50;83.80;;;;;;10755343;33;20024;-77
2023/01/28 22:39:22;;;;;;;12.20;8.68;;;5.40;83.70;;;;;;10742146;33;20029;-77
2023/01/28 22:45:24;;;;;;;15.43;9.02;;;5.30;83.80;;;;;;10754060;33;20017;-77
2023/01/28 22:51:29;;;;;;;9.40;6.68;;;5.30;84.10;;;;;;10741676;33;20039;-76
2023/01/28 22:57:31;;;;;;;13.38;8.35;;;5.20;84.20;;;;;;10754538;33;20016;-77
2023/01/28 23:03:34;;;;;;;13.38;8.93;;;5.30;84.10;;;;;;10754487;33;20047;-77
2023/01/28 23:09:36;;;;;;;16.77;9.80;;;5.30;84.00;;;;;;10728844;33;20411;-76
2023/01/28 23:28:20;;;;;;;12.88;8.70;;;5.20;84.30;;;;;;10753599;33;20342;-76
2023/01/28 23:34:22;;;;;;;14.30;9.40;;;5.20;84.40;;;;;;10753574;33;20035;-76
2023/01/28 23:40:25;;;;;;;14.40;10.35;;;5.20;84.40;;;;;;10741125;32;20037;-77
2023/01/28 23:46:28;;;;;;;13.25;7.75;;;5.20;84.60;;;;;;10740856;32;20382;-76
2023/01/28 23:52:30;;;;;;;10.98;7.15;;;5.20;84.80;;;;;;10753021;33;20429;-77
2023/01/28 23:58:33;;;;;;;12.00;6.93;;;5.20;84.70;;;;;;10752538;33;20020;-76
